KAXA

Algona Municipal Airport

Algona, Iowa, USA
METAR KAXA 201435Z AUTO 33012G21KT 10SM OVC013 19/17 A2987 RMK AO2 PWINO
Observed Flight Rules
Jul-20 @ 14:35 UTC (5 minutes ago) Marginal Visual Flight Rules
Wind Visibility Clouds
330° at 12 knots
 Gusting to 21 knots
10 miles
  • Overcast at 1,300' AGL
Temperatures Readings
Current 19°C / 66°F
Dewpoint 17°C / 63°F
Humidity 88%
Altimeter 29.87" Hg
Pressure 1012 hPa
Elevation 372
METAR KAXA 201435Z AUTO 33012G21KT 10SM OVC013 19/17 A2987 RMK AO2 PWINO
Observed Flight Rules
Jul-20 @ 14:35 UTC
(5 minutes ago)
MVFR
Wind Visibility
330° at 12 knots
 Gusting to 21 knots
10 miles
Clouds
  • Overcast at 1,300' AGL
Temperature Dewpoint
19°C / 66°F 17°C / 63°F
Humidity Altimeter Pressure
88% 29.87" Hg 1012 hPa